Time;durP1;ratioP1;P1;durP2;ratioP2;P2;SDS_P1;SDS_P2;PMS_P1;PMS_P2;Temp;Humidity;BMP_temperature;BMP_pressure;BME280_temperature;BME280_humidity;BME280_pressure;Samples;Min_cycle;Max_cycle;Signal;HPM_P1;HPM_P2
2023/01/03 00:02:01;;;;;;;3.63;3.27;;;10.00;99.90;;;;;;4993479;28;20689;-52
2023/01/03 00:04:28;;;;;;;7.40;4.50;;;10.00;99.90;;;;;;4992161;28;20203;-52
2023/01/03 00:06:55;;;;;;;3.87;3.10;;;10.00;99.90;;;;;;4993853;28;20279;-51
2023/01/03 00:09:23;;;;;;;3.27;3.00;;;10.20;99.90;;;;;;4992628;28;20563;-51
2023/01/03 00:14:38;;;;;;;3.50;2.57;;;10.30;99.90;;;;;;4987858;28;20392;-51
2023/01/03 00:17:08;;;;;;;4.00;2.07;;;10.20;99.90;;;;;;4992626;28;20210;-53
2023/01/03 00:19:37;;;;;;;3.83;1.90;;;10.10;99.90;;;;;;4993136;28;20206;-52
2023/01/03 00:22:05;;;;;;;4.60;2.57;;;10.20;99.90;;;;;;4993979;28;20276;-52
2023/01/03 00:24:32;;;;;;;2.53;2.33;;;10.10;99.90;;;;;;4992645;28;20207;-52
2023/01/03 00:27:02;;;;;;;4.83;3.00;;;10.10;99.90;;;;;;4994189;28;20194;-52
2023/01/03 00:29:30;;;;;;;2.70;2.27;;;10.10;99.90;;;;;;4993319;28;20213;-52
2023/01/03 00:31:57;;;;;;;3.47;2.40;;;10.00;99.90;;;;;;4993390;28;20229;-52
2023/01/03 00:34:25;;;;;;;2.97;2.17;;;10.00;99.90;;;;;;4993602;28;20206;-53
2023/01/03 00:36:52;;;;;;;2.60;2.40;;;9.90;99.90;;;;;;4994175;28;20268;-52
2023/01/03 00:39:19;;;;;;;5.30;2.57;;;10.00;99.90;;;;;;4994089;28;20560;-53
2023/01/03 00:41:47;;;;;;;2.33;2.13;;;9.90;99.90;;;;;;4993803;28;20276;-52
2023/01/03 00:44:14;;;;;;;3.77;1.77;;;9.80;99.90;;;;;;4992691;28;20269;-52
2023/01/03 00:46:41;;;;;;;3.07;2.13;;;9.90;99.90;;;;;;4993727;28;20745;-52
2023/01/03 00:49:09;;;;;;;2.33;1.90;;;9.90;99.90;;;;;;4987994;28;20203;-52
2023/01/03 00:51:39;;;;;;;4.07;1.83;;;9.80;99.90;;;;;;4990745;28;20216;-52
2023/01/03 00:54:08;;;;;;;4.97;1.67;;;9.80;99.90;;;;;;4993055;28;20207;-52
2023/01/03 00:56:37;;;;;;;1.97;1.87;;;9.80;99.90;;;;;;4993499;28;20206;-52
2023/01/03 00:59:05;;;;;;;4.53;1.23;;;9.70;99.90;;;;;;4993859;28;20366;-52
2023/01/03 01:01:34;;;;;;;3.10;1.80;;;9.70;99.90;;;;;;4993345;28;20228;-52
2023/01/03 01:04:05;;;;;;;2.23;1.60;;;9.70;99.90;;;;;;4993050;28;20204;-51
2023/01/03 01:06:34;;;;;;;1.07;1.07;;;9.80;99.90;;;;;;4992375;28;20214;-52
2023/01/03 01:09:04;;;;;;;1.43;1.13;;;9.80;99.90;;;;;;4993540;28;20228;-52
2023/01/03 01:11:32;;;;;;;1.93;1.43;;;9.90;99.90;;;;;;4993081;28;20736;-52
2023/01/03 01:13:59;;;;;;;1.20;0.90;;;10.00;99.90;;;;;;4992280;28;20202;-52
2023/01/03 01:16:28;;;;;;;1.37;0.90;;;10.00;99.90;;;;;;4993296;28;20202;-52
2023/01/03 01:18:56;;;;;;;3.67;1.00;;;9.90;99.90;;;;;;4993363;28;20265;-52
2023/01/03 01:21:25;;;;;;;5.87;2.07;;;9.90;99.90;;;;;;4992249;28;20223;-52
2023/01/03 01:23:52;;;;;;;5.27;1.80;;;9.90;99.90;;;;;;4984106;28;20213;-51
2023/01/03 01:26:24;;;;;;;2.17;1.47;;;9.80;99.90;;;;;;4993233;28;20582;-51
2023/01/03 01:28:51;;;;;;;3.20;1.20;;;9.80;99.90;;;;;;4993334;28;20598;-51
2023/01/03 01:31:21;;;;;;;1.40;1.30;;;9.80;99.90;;;;;;4992603;28;20216;-54
2023/01/03 01:33:48;;;;;;;3.47;1.43;;;9.70;99.90;;;;;;4986556;28;20208;-52
2023/01/03 01:36:17;;;;;;;2.40;2.20;;;9.70;99.90;;;;;;4992843;28;20670;-53
2023/01/03 01:38:45;;;;;;;3.40;2.20;;;9.80;99.90;;;;;;4993318;28;20218;-52
2023/01/03 01:41:13;;;;;;;1.70;1.60;;;10.00;99.90;;;;;;4992653;28;20764;-52
2023/01/03 01:46:34;;;;;;;3.70;1.30;;;10.00;99.90;;;;;;5087227;27;20562;-52
2023/01/03 01:49:03;;;;;;;1.93;1.27;;;9.70;99.90;;;;;;5087755;28;20648;-52
2023/01/03 01:51:33;;;;;;;4.10;1.57;;;9.80;99.90;;;;;;5077746;28;20277;-51
2023/01/03 01:54:03;;;;;;;4.00;1.53;;;9.80;99.90;;;;;;5068018;28;20234;-52
2023/01/03 01:56:34;;;;;;;1.87;1.53;;;9.60;99.90;;;;;;5057635;28;20501;-52
2023/01/03 01:59:01;;;;;;;2.37;1.37;;;9.60;99.90;;;;;;5060285;28;20252;-51
2023/01/03 02:01:30;;;;;;;2.17;1.97;;;9.50;99.90;;;;;;5067374;28;20283;-52
2023/01/03 02:04:03;;;;;;;2.30;1.70;;;9.50;99.90;;;;;;5066244;28;20197;-52
2023/01/03 02:06:32;;;;;;;4.00;1.40;;;9.60;99.90;;;;;;5066646;28;20231;-52
2023/01/03 02:08:59;;;;;;;5.57;2.80;;;9.60;99.90;;;;;;5047472;28;20206;-52
2023/01/03 02:11:33;;;;;;;2.77;1.47;;;9.60;99.90;;;;;;5047345;28;20228;-52
2023/01/03 02:14:23;;;;;;;1.60;1.10;;;9.60;99.90;;;;;;5053617;28;20261;-52
2023/01/03 02:17:01;;;;;;;1.20;1.10;;;9.50;99.90;;;;;;5066356;28;20620;-52
2023/01/03 02:20:02;;;;;;;3.63;1.10;;;9.50;99.90;;;;;;5066306;28;20252;-52
2023/01/03 02:23:11;;;;;;;3.20;0.80;;;9.50;99.90;;;;;;5062772;28;20284;-52
2023/01/03 02:26:16;;;;;;;2.00;1.47;;;9.40;99.90;;;;;;5061610;28;20230;-52
2023/01/03 02:29:15;;;;;;;1.43;1.33;;;9.40;99.90;;;;;;5065324;28;20275;-52
2023/01/03 02:31:50;;;;;;;3.60;1.30;;;9.40;99.90;;;;;;5064828;28;20776;-52
2023/01/03 02:34:26;;;;;;;1.90;1.57;;;9.40;99.90;;;;;;5066912;28;20210;-51
2023/01/03 02:37:04;;;;;;;1.77;1.67;;;9.30;99.90;;;;;;5057617;28;20226;-52
2023/01/03 02:39:39;;;;;;;4.20;1.63;;;9.40;99.90;;;;;;5056530;28;20283;-53
2023/01/03 02:45:06;;;;;;;1.47;1.23;;;9.40;99.90;;;;;;5066672;28;20750;-52
2023/01/03 02:47:40;;;;;;;2.27;1.67;;;9.30;99.90;;;;;;5066940;28;20266;-52
2023/01/03 02:50:12;;;;;;;2.73;1.40;;;9.20;99.90;;;;;;5065616;28;20276;-52
2023/01/03 02:52:41;;;;;;;1.70;1.70;;;9.20;99.90;;;;;;5064022;28;20213;-52
2023/01/03 02:55:15;;;;;;;5.57;1.73;;;9.20;99.90;;;;;;5065000;28;20193;-52
2023/01/03 02:57:47;;;;;;;2.30;1.30;;;9.30;99.90;;;;;;5054009;28;20661;-52
2023/01/03 03:00:17;;;;;;;2.03;1.40;;;9.30;99.90;;;;;;5053161;28;20262;-52
2023/01/03 03:02:51;;;;;;;3.07;1.93;;;9.20;99.90;;;;;;5050455;28;20250;-52
2023/01/03 03:05:24;;;;;;;2.77;1.50;;;9.20;99.90;;;;;;5052907;28;20245;-52
2023/01/03 03:07:52;;;;;;;2.23;1.87;;;9.20;99.90;;;;;;5052938;28;20203;-52
2023/01/03 03:13:13;;;;;;;3.00;1.60;;;9.10;99.90;;;;;;5040808;28;20234;-53
2023/01/03 03:15:46;;;;;;;2.77;1.97;;;9.10;99.90;;;;;;5050741;28;20257;-53
2023/01/03 03:18:19;;;;;;;2.20;2.10;;;9.10;99.90;;;;;;5052751;28;20293;-52
2023/01/03 03:26:22;;;;;;;1.70;1.60;;;9.10;99.90;;;;;;5035488;28;20234;-52
2023/01/03 03:29:05;;;;;;;2.73;2.47;;;9.10;99.90;;;;;;5043962;28;20288;-52
2023/01/03 03:31:36;;;;;;;2.00;1.73;;;9.00;99.90;;;;;;5052282;28;20222;-52
2023/01/03 03:34:10;;;;;;;3.67;1.70;;;9.00;99.90;;;;;;5051248;28;20702;-52
2023/01/03 03:36:45;;;;;;;2.37;1.83;;;9.00;99.90;;;;;;5042919;28;20215;-52
2023/01/03 03:45:02;;;;;;;2.40;2.20;;;9.10;99.90;;;;;;5050138;28;20364;-52
2023/01/03 03:47:38;;;;;;;2.20;2.00;;;9.10;99.90;;;;;;5050010;28;20731;-52
2023/01/03 03:50:09;;;;;;;3.13;2.10;;;9.20;99.90;;;;;;5047167;28;20202;-52
2023/01/03 03:52:37;;;;;;;3.43;1.60;;;9.40;99.90;;;;;;5051900;28;20227;-52
2023/01/03 03:55:09;;;;;;;2.73;1.43;;;9.40;99.90;;;;;;5052334;28;20315;-52
2023/01/03 03:57:41;;;;;;;2.10;1.40;;;9.40;99.90;;;;;;5052257;28;20205;-52
2023/01/03 04:00:12;;;;;;;1.80;1.20;;;9.40;99.90;;;;;;5049538;28;20658;-52
2023/01/03 04:02:41;;;;;;;2.73;1.53;;;9.40;99.90;;;;;;5051798;28;20219;-52
2023/01/03 04:05:12;;;;;;;2.47;1.73;;;9.40;99.90;;;;;;5052030;28;20231;-52
2023/01/03 04:07:40;;;;;;;3.70;1.63;;;9.30;99.90;;;;;;5051148;28;20659;-52
2023/01/03 04:10:09;;;;;;;2.00;1.47;;;9.20;99.90;;;;;;5051441;28;20290;-52
2023/01/03 04:12:36;;;;;;;3.90;1.87;;;9.20;99.90;;;;;;5049065;28;20758;-52
2023/01/03 04:15:05;;;;;;;1.67;1.30;;;9.20;99.90;;;;;;5051835;28;20191;-52
2023/01/03 04:17:32;;;;;;;2.47;1.80;;;9.20;99.90;;;;;;5049413;28;20203;-52
2023/01/03 04:19:59;;;;;;;1.60;1.50;;;9.20;99.90;;;;;;5051641;28;20222;-52
2023/01/03 04:22:27;;;;;;;2.80;1.43;;;9.30;99.90;;;;;;5051456;28;20299;-52
2023/01/03 04:24:54;;;;;;;2.50;1.37;;;9.20;99.90;;;;;;5051437;28;20252;-52
2023/01/03 04:27:21;;;;;;;2.77;2.23;;;9.20;99.90;;;;;;5049042;28;20202;-53
2023/01/03 04:29:48;;;;;;;3.17;1.80;;;9.20;99.90;;;;;;5051454;28;20239;-52
2023/01/03 04:32:15;;;;;;;3.90;1.87;;;9.20;99.90;;;;;;5050972;28;20218;-52
2023/01/03 04:34:42;;;;;;;2.07;1.97;;;9.20;99.90;;;;;;5034362;28;20263;-52
2023/01/03 04:37:09;;;;;;;3.40;1.53;;;9.10;99.90;;;;;;5051269;28;20320;-51
2023/01/03 04:39:38;;;;;;;2.90;1.70;;;9.20;99.90;;;;;;5041352;28;20282;-51
2023/01/03 04:44:00;;;;;;;2.20;1.67;;;9.20;99.90;;;;;;5050918;28;20232;-52
2023/01/03 04:44:51;;;;;;;5.30;1.27;;;9.30;99.90;;;;;;5050936;28;20685;-53
2023/01/03 04:47:18;;;;;;;3.03;1.37;;;9.20;99.90;;;;;;5051157;28;20219;-52
2023/01/03 04:49:46;;;;;;;2.23;1.73;;;9.20;99.90;;;;;;5049728;28;20200;-52
2023/01/03 04:52:13;;;;;;;4.67;1.47;;;9.20;99.90;;;;;;5049746;28;20220;-52
2023/01/03 04:54:41;;;;;;;1.63;1.53;;;9.20;99.90;;;;;;5050692;28;20670;-52
2023/01/03 04:57:09;;;;;;;3.80;1.17;;;9.10;99.90;;;;;;5051094;28;20199;-52
2023/01/03 04:59:36;;;;;;;1.00;1.00;;;9.10;99.90;;;;;;5052196;28;20808;-51
2023/01/03 05:02:04;;;;;;;2.30;1.30;;;9.10;99.90;;;;;;5050737;28;20281;-51
2023/01/03 05:04:31;;;;;;;1.33;1.23;;;9.10;99.90;;;;;;5050745;28;20207;-52
2023/01/03 05:07:01;;;;;;;1.70;1.40;;;9.10;99.90;;;;;;5045959;28;20281;-52
2023/01/03 05:09:28;;;;;;;2.03;1.83;;;9.00;99.90;;;;;;5041195;28;20212;-52
2023/01/03 05:12:00;;;;;;;1.20;1.20;;;9.00;99.90;;;;;;5073134;22;20231;-50
2023/01/03 05:14:27;;;;;;;2.10;2.00;;;8.90;99.90;;;;;;5051985;28;20223;-51
2023/01/03 05:16:54;;;;;;;2.50;2.37;;;8.90;99.90;;;;;;5051775;28;20199;-51
2023/01/03 05:19:21;;;;;;;3.00;1.70;;;8.90;99.90;;;;;;5051776;28;20211;-51
2023/01/03 05:27:17;;;;;;;1.73;1.63;;;8.90;99.90;;;;;;5071706;28;20706;-51
2023/01/03 05:29:46;;;;;;;1.80;1.60;;;8.90;99.90;;;;;;5071727;28;20237;-51
2023/01/03 05:32:13;;;;;;;2.73;1.77;;;8.90;99.90;;;;;;5071406;28;20274;-51
2023/01/03 05:34:40;;;;;;;2.23;1.73;;;8.90;99.90;;;;;;5071776;28;20259;-51
2023/01/03 05:37:07;;;;;;;1.80;1.47;;;8.80;99.90;;;;;;5070346;28;20681;-51
2023/01/03 05:39:34;;;;;;;1.47;1.37;;;8.80;99.90;;;;;;5070807;28;20207;-51
2023/01/03 05:42:02;;;;;;;1.73;1.63;;;8.80;99.90;;;;;;5071390;28;20214;-51
2023/01/03 05:44:32;;;;;;;3.30;3.00;;;8.80;99.90;;;;;;5058296;28;20618;-51
2023/01/03 05:47:03;;;;;;;2.90;2.70;;;8.70;99.90;;;;;;5063795;28;20226;-51
2023/01/03 05:49:30;;;;;;;3.23;2.33;;;8.70;99.90;;;;;;5071561;28;20233;-51
2023/01/03 05:51:57;;;;;;;2.63;1.37;;;8.70;99.90;;;;;;5071491;28;20349;-51
2023/01/03 05:54:24;;;;;;;1.47;1.37;;;8.70;99.90;;;;;;5071836;28;20281;-50
2023/01/03 05:56:51;;;;;;;2.40;2.30;;;8.80;99.90;;;;;;5070858;28;20208;-51
2023/01/03 05:59:19;;;;;;;1.73;1.63;;;8.80;99.90;;;;;;5071467;28;20320;-51
2023/01/03 06:01:48;;;;;;;2.17;1.53;;;8.70;99.90;;;;;;5070549;28;20273;-51
2023/01/03 06:04:15;;;;;;;2.50;1.50;;;8.70;99.90;;;;;;5071083;28;20203;-51
2023/01/03 06:06:42;;;;;;;2.40;1.93;;;8.70;99.90;;;;;;5071576;28;20278;-50
2023/01/03 06:09:09;;;;;;;2.20;1.97;;;8.70;99.90;;;;;;5071505;28;20252;-50
2023/01/03 06:11:36;;;;;;;3.00;2.73;;;8.70;99.90;;;;;;5071302;28;20235;-50
2023/01/03 06:14:03;;;;;;;2.90;2.70;;;8.80;99.90;;;;;;5069622;28;20207;-49
2023/01/03 06:19:16;;;;;;;1.63;1.53;;;8.70;99.90;;;;;;5071390;28;20317;-49
2023/01/03 06:21:43;;;;;;;3.43;2.03;;;8.60;99.90;;;;;;5070907;28;20230;-49
2023/01/03 06:24:11;;;;;;;3.00;2.37;;;8.70;99.90;;;;;;5071207;28;20199;-48
2023/01/03 06:26:38;;;;;;;2.57;2.13;;;8.70;99.90;;;;;;5071259;28;20294;-49
2023/01/03 06:29:05;;;;;;;2.03;1.93;;;8.70;99.90;;;;;;5071062;28;20206;-48
2023/01/03 06:31:32;;;;;;;2.33;2.00;;;8.70;99.90;;;;;;5070780;28;20773;-49
2023/01/03 06:33:59;;;;;;;2.30;2.20;;;8.60;99.90;;;;;;5055143;28;20201;-49
2023/01/03 06:36:28;;;;;;;1.73;1.63;;;8.60;99.90;;;;;;5054997;28;20200;-49
2023/01/03 06:38:55;;;;;;;1.60;1.50;;;8.60;99.90;;;;;;5074915;28;20206;-50
2023/01/03 06:41:22;;;;;;;1.50;1.40;;;8.60;99.90;;;;;;5074699;28;20235;-51
2023/01/03 06:43:49;;;;;;;2.13;1.87;;;8.60;99.90;;;;;;5074744;28;20209;-50
2023/01/03 06:54:40;;;;;;;2.53;2.43;;;8.60;99.90;;;;;;5074499;28;20217;-49
2023/01/03 06:57:07;;;;;;;2.47;2.27;;;8.60;99.90;;;;;;5074575;28;20684;-49
2023/01/03 06:59:34;;;;;;;1.80;1.70;;;8.50;99.90;;;;;;5073397;28;21095;-49
2023/01/03 07:02:05;;;;;;;1.87;1.77;;;8.50;99.90;;;;;;5074133;28;20279;-49
2023/01/03 07:04:32;;;;;;;1.70;1.60;;;8.50;99.90;;;;;;5073565;28;20207;-49
2023/01/03 07:07:01;;;;;;;2.80;1.50;;;8.50;99.90;;;;;;5074138;28;20223;-49
2023/01/03 07:09:27;;;;;;;2.47;1.43;;;8.40;99.90;;;;;;5073497;28;20803;-50
2023/01/03 07:11:55;;;;;;;2.47;1.70;;;8.40;99.90;;;;;;5073350;28;20692;-50
2023/01/03 07:14:21;;;;;;;1.43;1.37;;;8.40;99.90;;;;;;5074384;28;20210;-50
2023/01/03 07:16:48;;;;;;;2.13;1.33;;;8.40;99.90;;;;;;5074129;28;20698;-50
2023/01/03 07:19:17;;;;;;;6.70;6.20;;;8.40;99.90;;;;;;5072737;28;20676;-51
2023/01/03 07:21:45;;;;;;;4.40;2.53;;;8.40;99.90;;;;;;5073628;28;20226;-51
2023/01/03 07:24:17;;;;;;;5.70;4.30;;;8.40;99.90;;;;;;5074015;28;20249;-51
2023/01/03 07:26:44;;;;;;;2.90;2.60;;;8.30;99.90;;;;;;5073912;28;20565;-50
2023/01/03 07:29:11;;;;;;;2.53;2.07;;;8.30;99.90;;;;;;5073951;28;20253;-48
2023/01/03 07:31:39;;;;;;;2.67;1.63;;;8.30;99.90;;;;;;5073476;28;20237;-49
2023/01/03 07:34:07;;;;;;;2.43;2.07;;;8.30;99.90;;;;;;5074114;28;20206;-50
2023/01/03 07:36:34;;;;;;;2.57;1.87;;;8.30;99.90;;;;;;5072000;28;20565;-49
2023/01/03 07:39:01;;;;;;;2.40;2.30;;;8.30;99.90;;;;;;5073661;28;20665;-48
2023/01/03 07:44:11;;;;;;;3.53;2.13;;;8.20;99.90;;;;;;5063012;28;20207;-49
2023/01/03 07:46:38;;;;;;;2.30;2.20;;;8.20;99.90;;;;;;5071901;28;20225;-50
2023/01/03 07:49:05;;;;;;;2.43;2.03;;;8.20;99.90;;;;;;5071436;28;20198;-50
2023/01/03 07:51:32;;;;;;;3.33;3.13;;;8.20;99.90;;;;;;5072995;28;20703;-51
2023/01/03 07:54:01;;;;;;;3.63;3.43;;;8.20;99.90;;;;;;5069930;28;20252;-51
2023/01/03 07:56:29;;;;;;;5.00;3.87;;;8.30;99.90;;;;;;5071784;28;20221;-51
2023/01/03 07:58:56;;;;;;;4.60;4.20;;;8.30;99.90;;;;;;5063495;28;20196;-50
2023/01/03 08:01:24;;;;;;;3.57;3.27;;;8.40;99.90;;;;;;5071733;28;20222;-50
2023/01/03 08:03:51;;;;;;;2.63;2.50;;;8.30;99.90;;;;;;5072006;28;20207;-51
2023/01/03 08:06:20;;;;;;;3.77;3.53;;;8.30;99.90;;;;;;5072576;28;20230;-51
2023/01/03 08:13:16;;;;;;;5.13;4.73;;;8.30;99.90;;;;;;5069928;28;20215;-50
2023/01/03 08:14:22;;;;;;;2.80;2.67;;;8.40;99.90;;;;;;5072872;28;20229;-51
2023/01/03 08:16:49;;;;;;;2.20;2.10;;;8.40;99.90;;;;;;5072011;28;20260;-51
2023/01/03 08:19:16;;;;;;;2.23;2.13;;;8.40;99.90;;;;;;5072740;28;20195;-52
2023/01/03 08:21:43;;;;;;;2.10;2.00;;;8.30;99.90;;;;;;5071294;28;20272;-50
2023/01/03 08:24:10;;;;;;;1.93;1.93;;;8.30;99.90;;;;;;5071241;28;20256;-51
2023/01/03 08:26:38;;;;;;;2.23;2.13;;;8.30;99.90;;;;;;5070043;28;20215;-51
2023/01/03 08:29:05;;;;;;;1.80;1.70;;;8.40;99.90;;;;;;5071397;28;20199;-50
2023/01/03 08:31:35;;;;;;;3.47;2.87;;;8.40;99.90;;;;;;5070433;28;20353;-51
2023/01/03 08:34:04;;;;;;;3.43;3.10;;;8.40;99.90;;;;;;5070972;28;20248;-51
2023/01/03 08:36:34;;;;;;;3.53;3.33;;;8.40;99.90;;;;;;5071603;28;20193;-51
2023/01/03 08:39:05;;;;;;;2.50;2.40;;;8.30;99.90;;;;;;5072363;28;20614;-50
2023/01/03 08:41:37;;;;;;;3.30;3.10;;;8.30;99.90;;;;;;5069947;28;20312;-51
2023/01/03 08:44:08;;;;;;;3.27;2.23;;;8.30;99.90;;;;;;5070116;28;20211;-51
2023/01/03 08:46:38;;;;;;;2.77;2.63;;;8.20;99.90;;;;;;5071216;28;20301;-51
2023/01/03 08:49:05;;;;;;;2.23;2.03;;;8.20;99.90;;;;;;5068929;28;20252;-51
2023/01/03 08:51:32;;;;;;;2.30;2.17;;;8.30;99.90;;;;;;5070134;28;20699;-51
2023/01/03 08:53:59;;;;;;;2.20;2.10;;;8.30;99.90;;;;;;5069820;28;20198;-51
2023/01/03 08:56:27;;;;;;;2.57;2.47;;;8.30;99.90;;;;;;5070494;28;20691;-51
2023/01/03 08:58:56;;;;;;;2.23;2.13;;;8.30;99.90;;;;;;5069345;28;20252;-51
2023/01/03 09:01:25;;;;;;;3.00;2.07;;;8.30;99.90;;;;;;5071903;28;20275;-50
2023/01/03 09:03:52;;;;;;;2.33;2.23;;;8.30;99.90;;;;;;5071889;28;20622;-49
2023/01/03 09:06:19;;;;;;;2.77;2.57;;;8.30;99.90;;;;;;5071683;28;20614;-51
2023/01/03 09:08:46;;;;;;;2.57;2.47;;;8.30;99.90;;;;;;5063137;28;20672;-50
2023/01/03 09:11:13;;;;;;;2.33;2.13;;;8.30;99.90;;;;;;5066521;28;20782;-50
2023/01/03 09:13:40;;;;;;;3.17;3.07;;;8.40;99.90;;;;;;5070561;28;20260;-51
2023/01/03 09:16:10;;;;;;;2.73;2.63;;;8.40;99.90;;;;;;5068445;28;20200;-50
2023/01/03 09:18:41;;;;;;;2.47;2.37;;;8.40;99.90;;;;;;5069210;28;20249;-49
2023/01/03 09:21:09;;;;;;;3.33;2.20;;;8.40;99.90;;;;;;5071849;28;20230;-49
2023/01/03 09:23:36;;;;;;;12.57;3.27;;;8.50;99.90;;;;;;5071852;28;20206;-49
2023/01/03 09:26:04;;;;;;;10.77;3.20;;;8.50;99.90;;;;;;5071981;28;20248;-48
2023/01/03 09:28:31;;;;;;;2.20;1.97;;;8.50;99.90;;;;;;5071399;28;20222;-48
2023/01/03 09:30:58;;;;;;;2.93;2.67;;;8.50;99.90;;;;;;5070734;28;20218;-49
2023/01/03 09:33:25;;;;;;;3.00;2.70;;;8.50;99.90;;;;;;5070715;28;20225;-52
2023/01/03 09:35:54;;;;;;;3.03;2.93;;;8.50;99.90;;;;;;5071759;28;20668;-50
2023/01/03 09:38:22;;;;;;;3.53;3.23;;;8.60;99.90;;;;;;5071801;28;20753;-51
2023/01/03 09:40:58;;;;;;;3.50;3.30;;;8.60;99.90;;;;;;5071673;28;20256;-51
2023/01/03 09:43:31;;;;;;;3.33;3.13;;;8.60;99.90;;;;;;5071414;28;20211;-50
2023/01/03 09:46:00;;;;;;;3.57;3.37;;;8.70;99.90;;;;;;5070782;28;20199;-51
2023/01/03 09:48:32;;;;;;;3.27;3.00;;;8.60;99.90;;;;;;5068010;28;20309;-52
2023/01/03 09:51:01;;;;;;;4.37;3.83;;;8.60;99.90;;;;;;5063520;28;20223;-52
2023/01/03 10:05:24;;;;;;;6.80;5.40;;;8.90;99.90;;;;;;5069461;28;20245;-50
2023/01/03 10:08:07;;;;;;;4.97;4.63;;;8.90;99.90;;;;;;5051280;28;20857;-50
2023/01/03 10:10:46;;;;;;;5.17;4.70;;;9.00;99.90;;;;;;5055627;28;20211;-51
2023/01/03 10:13:21;;;;;;;4.33;3.93;;;9.00;99.90;;;;;;5059182;28;20264;-51
2023/01/03 10:15:57;;;;;;;5.43;5.03;;;9.00;99.90;;;;;;5075276;28;20206;-51
2023/01/03 10:18:41;;;;;;;6.27;5.87;;;9.00;99.90;;;;;;5075240;28;20195;-51
2023/01/03 10:21:13;;;;;;;6.37;5.80;;;9.10;99.90;;;;;;5073530;28;20218;-52
2023/01/03 10:23:42;;;;;;;4.30;4.03;;;9.10;99.90;;;;;;5075062;28;20671;-52
2023/01/03 10:26:12;;;;;;;4.40;4.10;;;9.00;99.90;;;;;;5073536;28;20294;-51
2023/01/03 10:28:42;;;;;;;4.20;3.97;;;9.00;99.90;;;;;;5074770;28;20228;-51
2023/01/03 10:31:22;;;;;;;3.50;3.30;;;9.00;99.90;;;;;;5069650;28;20284;-51
2023/01/03 10:33:50;;;;;;;3.60;3.30;;;8.90;99.90;;;;;;5073666;28;20679;-51
2023/01/03 10:36:20;;;;;;;4.13;3.63;;;8.90;99.90;;;;;;5074862;28;20202;-51
2023/01/03 10:38:48;;;;;;;3.50;3.30;;;8.90;99.90;;;;;;5074966;28;20244;-50
2023/01/03 10:41:17;;;;;;;3.17;2.70;;;8.90;99.90;;;;;;5074729;28;20284;-51
2023/01/03 10:43:55;;;;;;;3.87;3.67;;;8.90;99.90;;;;;;5074780;28;20260;-51
2023/01/03 10:46:24;;;;;;;3.97;3.70;;;8.90;99.90;;;;;;5074871;28;20265;-50
2023/01/03 10:48:53;;;;;;;3.10;2.90;;;8.90;99.90;;;;;;5073301;28;20253;-51
2023/01/03 10:51:28;;;;;;;3.97;3.50;;;8.90;99.90;;;;;;5074460;28;20230;-50
2023/01/03 10:53:59;;;;;;;3.87;3.60;;;9.00;99.90;;;;;;5074312;28;20266;-51
2023/01/03 10:56:28;;;;;;;3.50;3.30;;;9.10;99.90;;;;;;5074544;28;20673;-49
2023/01/03 10:59:11;;;;;;;3.73;3.40;;;9.00;99.90;;;;;;5074666;28;20200;-49
2023/01/03 11:01:38;;;;;;;4.40;4.00;;;9.00;99.90;;;;;;5074447;28;20222;-49
2023/01/03 11:04:13;;;;;;;6.70;6.07;;;9.10;99.90;;;;;;5073861;28;20202;-49
2023/01/03 11:06:55;;;;;;;8.23;7.33;;;9.10;99.90;;;;;;5074542;28;20300;-49
2023/01/03 11:09:24;;;;;;;6.10;5.60;;;9.10;99.90;;;;;;5072458;28;20199;-49
2023/01/03 11:11:54;;;;;;;4.10;3.90;;;9.20;99.90;;;;;;5094529;22;20662;-51
2023/01/03 11:14:24;;;;;;;4.30;3.93;;;9.30;99.90;;;;;;5073742;28;20223;-50
2023/01/03 11:17:01;;;;;;;4.03;3.73;;;9.30;99.90;;;;;;5073977;28;20238;-51
2023/01/03 11:19:29;;;;;;;3.83;3.63;;;9.30;99.90;;;;;;5072300;28;20707;-49
2023/01/03 11:22:13;;;;;;;3.73;3.53;;;9.30;99.90;;;;;;5081901;28;20627;-50
2023/01/03 11:25:03;;;;;;;3.53;3.07;;;9.40;99.90;;;;;;5093561;28;20634;-50
2023/01/03 11:28:02;;;;;;;2.80;2.53;;;9.50;99.90;;;;;;5093128;28;20218;-49
2023/01/03 11:30:36;;;;;;;3.13;2.93;;;9.30;99.90;;;;;;5085337;28;20300;-50
2023/01/03 11:33:46;;;;;;;3.50;2.20;;;9.20;99.90;;;;;;5083151;28;20288;-51
2023/01/03 11:36:26;;;;;;;2.50;2.40;;;9.20;99.90;;;;;;5088370;28;20250;-50
2023/01/03 11:39:02;;;;;;;2.97;2.67;;;9.20;99.90;;;;;;5094155;28;20194;-50
2023/01/03 11:41:52;;;;;;;2.60;2.50;;;9.30;99.90;;;;;;5093931;28;20219;-51
2023/01/03 11:44:37;;;;;;;2.90;2.70;;;9.30;99.90;;;;;;5093767;28;20712;-50
2023/01/03 11:47:19;;;;;;;3.10;2.90;;;9.30;99.90;;;;;;5093780;28;20202;-48
2023/01/03 11:49:56;;;;;;;2.90;2.60;;;9.30;99.90;;;;;;5093977;28;20267;-50
2023/01/03 11:52:29;;;;;;;3.67;3.37;;;9.40;99.90;;;;;;5093511;28;20226;-49
2023/01/03 11:55:31;;;;;;;3.57;3.27;;;9.30;99.90;;;;;;5093704;28;20204;-50
2023/01/03 11:58:08;;;;;;;3.60;3.40;;;9.30;99.90;;;;;;5093671;28;20201;-50
2023/01/03 12:00:43;;;;;;;3.90;3.60;;;9.50;99.90;;;;;;5093555;28;20204;-49
2023/01/03 12:03:21;;;;;;;3.43;3.23;;;9.40;99.90;;;;;;5094494;28;20215;-51
2023/01/03 12:05:51;;;;;;;3.70;3.47;;;9.40;99.90;;;;;;5091119;28;20260;-50
2023/01/03 12:08:54;;;;;;;3.83;3.57;;;9.40;99.90;;;;;;5093382;28;20630;-51
2023/01/03 12:11:35;;;;;;;3.80;3.00;;;9.40;99.90;;;;;;5093135;28;20279;-50
2023/01/03 12:14:13;;;;;;;2.57;2.37;;;9.40;99.90;;;;;;5093151;28;20740;-50
2023/01/03 12:16:45;;;;;;;3.67;3.37;;;9.40;99.90;;;;;;5080824;28;20748;-51
2023/01/03 12:19:25;;;;;;;3.33;3.00;;;9.40;99.90;;;;;;5088989;28;20720;-50
2023/01/03 12:22:01;;;;;;;2.50;2.40;;;9.30;99.90;;;;;;5090764;28;20218;-50
2023/01/03 12:24:35;;;;;;;3.60;3.30;;;9.20;99.90;;;;;;5089782;28;20703;-50
2023/01/03 12:27:11;;;;;;;3.57;2.67;;;9.20;99.90;;;;;;5085622;28;20210;-50
2023/01/03 12:29:51;;;;;;;2.63;2.47;;;9.20;99.90;;;;;;5088650;28;20263;-50
2023/01/03 12:32:23;;;;;;;2.53;2.43;;;9.20;99.90;;;;;;5090963;28;20278;-50
2023/01/03 12:34:55;;;;;;;2.57;2.47;;;9.20;99.90;;;;;;5091178;28;20263;-49
2023/01/03 12:37:24;;;;;;;2.03;1.93;;;9.20;99.90;;;;;;5090468;28;20278;-49
2023/01/03 12:39:55;;;;;;;3.27;3.07;;;9.20;99.90;;;;;;5090137;28;20294;-50
2023/01/03 12:42:32;;;;;;;2.53;2.43;;;9.20;99.90;;;;;;5090770;28;20224;-50
2023/01/03 12:45:14;;;;;;;4.90;2.97;;;9.30;99.90;;;;;;5089736;28;20671;-50
2023/01/03 12:47:46;;;;;;;2.60;2.43;;;9.30;99.90;;;;;;5091806;28;20322;-51
2023/01/03 12:50:18;;;;;;;2.73;2.53;;;9.40;99.90;;;;;;5092000;28;20198;-50
2023/01/03 12:52:54;;;;;;;2.63;2.43;;;9.30;99.90;;;;;;5090265;28;20643;-50
2023/01/03 12:55:29;;;;;;;2.87;2.67;;;9.30;99.90;;;;;;5091643;28;20195;-50
2023/01/03 12:58:17;;;;;;;2.03;1.93;;;9.30;99.90;;;;;;5082465;28;20198;-50
2023/01/03 13:00:56;;;;;;;2.03;1.93;;;9.20;99.90;;;;;;5088611;28;20202;-50
2023/01/03 13:03:27;;;;;;;2.70;2.07;;;9.20;99.90;;;;;;5091501;28;20260;-50
2023/01/03 13:05:59;;;;;;;2.23;2.07;;;9.30;99.90;;;;;;5090353;28;20245;-50
2023/01/03 13:08:33;;;;;;;3.33;2.13;;;9.20;99.90;;;;;;5090020;28;20272;-50
2023/01/03 13:11:04;;;;;;;5.10;4.00;;;9.20;99.90;;;;;;5090051;28;20200;-49
2023/01/03 13:13:32;;;;;;;8.80;5.77;;;9.20;99.90;;;;;;5092297;28;20259;-50
2023/01/03 13:16:39;;;;;;;7.90;4.97;;;9.20;99.90;;;;;;5089463;28;20598;-51
2023/01/03 13:19:39;;;;;;;3.73;3.43;;;9.20;99.90;;;;;;5081761;28;20206;-50
2023/01/03 13:22:32;;;;;;;3.50;2.77;;;9.20;99.90;;;;;;5084594;28;20238;-51
2023/01/03 13:25:45;;;;;;;3.87;3.57;;;9.20;99.90;;;;;;5083455;28;20202;-49
2023/01/03 13:28:33;;;;;;;4.10;3.80;;;9.10;99.90;;;;;;5086460;28;20271;-49
2023/01/03 13:31:46;;;;;;;4.83;4.10;;;9.20;99.90;;;;;;5088572;28;20209;-50
2023/01/03 13:34:33;;;;;;;5.60;3.93;;;9.20;99.90;;;;;;5088734;28;20252;-50
2023/01/03 13:37:17;;;;;;;3.60;3.37;;;9.20;99.90;;;;;;5084167;28;20225;-50
2023/01/03 13:40:23;;;;;;;4.30;4.10;;;9.10;99.90;;;;;;5090796;28;20231;-49
2023/01/03 13:43:02;;;;;;;3.37;3.17;;;9.20;99.90;;;;;;5082732;28;20229;-50
2023/01/03 13:45:57;;;;;;;3.13;2.93;;;9.30;99.90;;;;;;5088384;28;20288;-49
2023/01/03 13:48:31;;;;;;;3.87;3.40;;;9.20;99.90;;;;;;5079284;28;20295;-50
2023/01/03 13:51:37;;;;;;;4.27;3.97;;;9.20;99.90;;;;;;5090219;28;20202;-51
2023/01/03 13:54:34;;;;;;;3.70;3.50;;;9.20;99.90;;;;;;5091603;28;20839;-50
2023/01/03 13:57:05;;;;;;;3.53;3.33;;;9.10;99.90;;;;;;5071868;28;20625;-49
2023/01/03 13:59:41;;;;;;;5.00;4.60;;;9.10;99.90;;;;;;5083092;28;20231;-50
2023/01/03 14:02:46;;;;;;;4.63;4.37;;;8.90;99.90;;;;;;5091681;28;20633;-51
2023/01/03 14:05:25;;;;;;;4.50;4.20;;;8.90;99.90;;;;;;5076094;28;20259;-49
2023/01/03 14:08:12;;;;;;;6.30;5.73;;;8.90;99.90;;;;;;5091445;28;20223;-50
2023/01/03 14:11:05;;;;;;;5.80;5.30;;;8.80;99.90;;;;;;5091795;28;20631;-50
2023/01/03 14:13:41;;;;;;;5.37;4.97;;;8.70;99.90;;;;;;5089755;28;20260;-50
2023/01/03 14:16:41;;;;;;;6.13;4.70;;;8.70;99.90;;;;;;5090811;28;20198;-49
2023/01/03 14:19:18;;;;;;;6.43;5.17;;;8.70;99.90;;;;;;5073529;28;20199;-50
2023/01/03 14:21:48;;;;;;;5.13;4.73;;;8.70;99.90;;;;;;5091306;28;20781;-51